Time;durP1;ratioP1;P1;durP2;ratioP2;P2;SDS_P1;SDS_P2;PMS_P1;PMS_P2;Temp;Humidity;BMP_temperature;BMP_pressure;BME280_temperature;BME280_humidity;BME280_pressure;Samples;Min_cycle;Max_cycle;Signal;HPM_P1;HPM_P2
2023/07/01 00:01:42;;;;;;;;;;;;;;;20.66;54.17;99051.53;10249748;28;933;-67
2023/07/01 00:06:41;;;;;;;;;;;;;;;20.65;54.04;99036.59;10250338;28;1902;-66
2023/07/01 00:11:38;;;;;;;;;;;;;;;20.64;54.18;99024.28;10250180;28;926;-67
2023/07/01 00:16:34;;;;;;;;;;;;;;;20.63;54.11;99028.75;10249371;28;841;-66
2023/07/01 00:21:31;;;;;;;;;;;;;;;20.63;54.21;99018.16;10248346;28;872;-67
2023/07/01 00:26:28;;;;;;;;;;;;;;;20.63;54.27;99007.56;10249391;28;1902;-65
2023/07/01 00:31:25;;;;;;;;;;;;;;;20.61;54.17;99009.44;10248246;28;1142;-67
2023/07/01 00:36:22;;;;;;;;;;;;;;;20.61;54.20;98998.84;10248641;28;788;-66
2023/07/01 00:41:20;;;;;;;;;;;;;;;20.60;53.88;98999.81;10248617;28;965;-67
2023/07/01 00:46:17;;;;;;;;;;;;;;;20.60;53.90;98988.38;10248190;28;1914;-67
2023/07/01 00:51:13;;;;;;;;;;;;;;;20.60;53.93;98986.59;10248711;28;889;-67
2023/07/01 00:56:10;;;;;;;;;;;;;;;20.58;54.13;98978.72;10247923;28;882;-67
2023/07/01 01:01:07;;;;;;;;;;;;;;;20.58;53.77;98978.72;10247725;28;771;-67
2023/07/01 01:06:04;;;;;;;;;;;;;;;20.57;53.88;98969.09;10247414;28;1970;-68
2023/07/01 01:11:01;;;;;;;;;;;;;;;20.58;53.85;98962.00;10247295;28;862;-67
2023/07/01 01:15:57;;;;;;;;;;;;;;;20.57;53.70;98957.66;10248077;28;909;-67
2023/07/01 01:20:54;;;;;;;;;;;;;;;20.58;53.91;98948.75;10247574;28;886;-67
2023/07/01 01:25:51;;;;;;;;;;;;;;;20.56;53.83;98942.72;10246732;28;1902;-66
2023/07/01 01:30:48;;;;;;;;;;;;;;;20.56;53.86;98938.25;10246104;28;1542;-67
2023/07/01 01:35:44;;;;;;;;;;;;;;;20.54;53.83;98929.59;10247115;28;838;-67
2023/07/01 01:40:41;;;;;;;;;;;;;;;20.54;53.54;98918.13;10246644;28;763;-67
2023/07/01 01:45:38;;;;;;;;;;;;;;;20.53;53.54;98908.47;10245378;28;1959;-66
2023/07/01 01:50:35;;;;;;;;;;;;;;;20.53;53.93;98904.03;10245979;28;856;-66
2023/07/01 01:55:31;;;;;;;;;;;;;;;20.54;53.66;98904.91;10245678;28;885;-67
2023/07/01 02:00:28;;;;;;;;;;;;;;;20.50;53.45;98893.66;10245448;28;763;-67
2023/07/01 02:05:25;;;;;;;;;;;;;;;20.52;53.85;98888.25;10245209;28;1906;-67
2023/07/01 02:10:22;;;;;;;;;;;;;;;20.52;53.77;98878.50;10244560;28;921;-67
2023/07/01 02:15:18;;;;;;;;;;;;;;;20.53;53.83;98876.72;10244612;28;873;-67
2023/07/01 02:20:15;;;;;;;;;;;;;;;20.53;53.95;98872.25;10245698;28;803;-67
2023/07/01 02:25:12;;;;;;;;;;;;;;;20.53;53.85;98860.81;10245192;28;1957;-67
2023/07/01 02:30:09;;;;;;;;;;;;;;;20.50;53.75;98853.94;10245180;28;941;-67
2023/07/01 02:35:05;;;;;;;;;;;;;;;20.52;53.79;98841.44;10245199;28;1362;-67
2023/07/01 02:40:04;;;;;;;;;;;;;;;20.50;53.83;98845.16;10244205;28;768;-67
2023/07/01 02:45:01;;;;;;;;;;;;;;;20.48;53.73;98847.91;10243569;28;1910;-67
2023/07/01 02:49:58;;;;;;;;;;;;;;;20.49;53.72;98846.97;10244047;28;787;-67
2023/07/01 02:54:54;;;;;;;;;;;;;;;20.49;53.72;98843.47;10244512;28;805;-67
2023/07/01 02:59:51;;;;;;;;;;;;;;;20.47;53.80;98848.03;10243863;28;801;-67
2023/07/01 03:04:48;;;;;;;;;;;;;;;20.45;53.38;98850.75;10244351;28;1080;-66
2023/07/01 03:09:44;;;;;;;;;;;;;;;20.45;53.54;98844.63;10243022;28;1894;-67
2023/07/01 03:14:42;;;;;;;;;;;;;;;20.44;53.58;98842.94;10243568;28;798;-67
2023/07/01 03:19:41;;;;;;;;;;;;;;;20.44;53.29;98837.66;10243421;28;963;-67
2023/07/01 03:24:38;;;;;;;;;;;;;;;20.43;53.37;98830.63;10244140;28;798;-67
2023/07/01 03:29:35;;;;;;;;;;;;;;;20.43;53.28;98831.47;10243213;28;1902;-67
2023/07/01 03:34:31;;;;;;;;;;;;;;;20.41;53.38;98822.81;10243450;28;1173;-67
2023/07/01 03:39:28;;;;;;;;;;;;;;;20.41;53.03;98816.66;10243538;28;1054;-67
2023/07/01 03:44:25;;;;;;;;;;;;;;;20.40;53.13;98809.69;10243034;28;874;-67
2023/07/01 03:49:22;;;;;;;;;;;;;;;20.40;53.06;98804.38;10243019;28;1973;-67
2023/07/01 03:54:18;;;;;;;;;;;;;;;20.40;52.90;98807.03;10243688;28;859;-67
2023/07/01 03:59:15;;;;;;;;;;;;;;;20.40;53.15;98801.75;10249435;28;842;-67
2023/07/01 04:04:12;;;;;;;;;;;;;;;20.39;53.07;98798.25;10249980;28;849;-67
2023/07/01 04:09:12;;;;;;;;;;;;;;;20.38;53.00;98790.41;10250281;28;1894;-67
2023/07/01 04:14:09;;;;;;;;;;;;;;;20.37;53.05;98792.22;10250105;28;878;-67
2023/07/01 04:19:08;;;;;;;;;;;;;;;20.38;53.32;98783.31;10249942;28;771;-67
2023/07/01 04:24:07;;;;;;;;;;;;;;;20.36;53.21;98772.84;10249158;28;927;-67
2023/07/01 04:29:04;;;;;;;;;;;;;;;20.38;53.01;98774.53;10250038;28;1947;-67
2023/07/01 04:34:00;;;;;;;;;;;;;;;20.39;53.21;98771.78;10249220;28;1359;-67
2023/07/01 04:38:57;;;;;;;;;;;;;;;20.34;52.77;98771.25;10248817;28;1168;-67
2023/07/01 04:43:54;;;;;;;;;;;;;;;20.38;52.65;98761.28;10249205;28;854;-67
2023/07/01 04:48:51;;;;;;;;;;;;;;;20.41;52.64;98751.34;10247520;28;1910;-67
2023/07/01 04:53:48;;;;;;;;;;;;;;;20.44;51.74;98753.78;10248024;28;881;-67
2023/07/01 04:58:44;;;;;;;;;;;;;;;20.45;51.55;98749.34;10247884;28;917;-66
2023/07/01 05:03:41;;;;;;;;;;;;;;;20.45;51.33;98738.75;10248348;28;822;-66
2023/07/01 05:08:38;;;;;;;;;;;;;;;20.46;51.10;98735.13;10247221;28;1898;-66
2023/07/01 05:13:35;;;;;;;;;;;;;;;20.45;51.13;98725.50;10247286;28;984;-67
2023/07/01 05:18:31;;;;;;;;;;;;;;;20.47;51.33;98726.25;10247707;28;861;-67
2023/07/01 05:23:28;;;;;;;;;;;;;;;20.45;51.46;98726.34;10246909;28;964;-65
2023/07/01 05:28:25;;;;;;;;;;;;;;;20.44;51.41;98729.97;10245856;28;1960;-64
2023/07/01 05:33:22;;;;;;;;;;;;;;;20.44;51.85;98723.84;10247356;28;1237;-65
2023/07/01 05:38:18;;;;;;;;;;;;;;;20.45;51.35;98720.22;10246293;28;1255;-65
2023/07/01 05:43:15;;;;;;;;;;;;;;;20.46;52.04;98698.94;10246175;28;826;-65
2023/07/01 05:48:12;;;;;;;;;;;;;;;20.44;52.19;98700.00;10245310;28;1934;-66
2023/07/01 05:53:09;;;;;;;;;;;;;;;20.42;51.32;98701.91;10245770;28;765;-66
2023/07/01 05:58:06;;;;;;;;;;;;;;;20.40;51.36;98698.53;10245585;28;830;-66
2023/07/01 06:03:02;;;;;;;;;;;;;;;20.39;50.92;98699.50;10245690;28;1075;-66
2023/07/01 06:07:59;;;;;;;;;;;;;;;20.35;51.26;98686.44;10245776;28;1975;-66
2023/07/01 06:12:56;;;;;;;;;;;;;;;20.33;50.99;98677.78;10245637;28;893;-68
2023/07/01 06:17:53;;;;;;;;;;;;;;;20.33;50.91;98677.78;10244496;28;1007;-66
2023/07/01 06:22:49;;;;;;;;;;;;;;;20.13;50.17;98689.75;10245344;28;775;-70
2023/07/01 06:27:46;;;;;;;;;;;;;;;20.06;49.37;98677.06;10245146;28;1898;-70
2023/07/01 06:32:43;;;;;;;;;;;;;;;19.97;49.40;98683.84;10244022;28;1965;-70
2023/07/01 06:37:40;;;;;;;;;;;;;;;20.00;49.29;98675.69;10244910;28;888;-69
2023/07/01 06:42:37;;;;;;;;;;;;;;;19.98;48.86;98661.72;10244345;28;925;-69
2023/07/01 06:47:33;;;;;;;;;;;;;;;19.99;48.51;98659.94;10244220;28;1974;-69
2023/07/01 06:52:31;;;;;;;;;;;;;;;19.98;48.73;98666.19;10244742;28;877;-69
2023/07/01 06:57:30;;;;;;;;;;;;;;;19.99;48.82;98659.94;10243907;28;967;-70
2023/07/01 07:02:26;;;;;;;;;;;;;;;19.98;48.60;98660.88;10244051;28;797;-71
2023/07/01 07:07:23;;;;;;;;;;;;;;;19.98;48.46;98660.88;10243629;28;1902;-70
2023/07/01 07:12:20;;;;;;;;;;;;;;;19.97;48.41;98677.72;10243954;28;911;-71
2023/07/01 07:17:18;;;;;;;;;;;;;;;19.99;48.74;98686.38;10243597;28;775;-71
2023/07/01 07:22:15;;;;;;;;;;;;;;;19.97;48.59;98669.78;10243723;28;778;-71
2023/07/01 07:27:11;;;;;;;;;;;;;;;19.99;48.96;98670.50;10243504;28;1969;-70
2023/07/01 07:32:08;;;;;;;;;;;;;;;20.12;49.13;98671.34;10250168;28;1099;-71
2023/07/01 07:37:05;;;;;;;;;;;;;;;20.22;49.17;98674.19;10250438;28;1226;-70
2023/07/01 07:42:02;;;;;;;;;;;;;;;20.33;49.24;98680.44;10250986;28;854;-71
2023/07/01 07:46:59;;;;;;;;;;;;;;;20.35;49.29;98680.31;10251143;28;1910;-70
2023/07/01 07:52:00;;;;;;;;;;;;;;;20.36;49.43;98685.50;10250364;28;872;-68
2023/07/01 07:56:59;;;;;;;;;;;;;;;20.38;49.40;98685.38;10250161;28;843;-72
2023/07/01 08:01:57;;;;;;;;;;;;;;;20.49;49.71;98676.72;10250067;28;1017;-73
2023/07/01 08:06:54;;;;;;;;;;;;;;;20.45;50.19;98675.22;10250811;28;1965;-70
2023/07/01 08:11:51;;;;;;;;;;;;;;;20.42;50.07;98664.84;10249647;28;969;-70
2023/07/01 08:16:48;;;;;;;;;;;;;;;20.43;50.14;98661.25;10249551;28;897;-70
2023/07/01 08:21:45;;;;;;;;;;;;;;;20.45;50.12;98665.47;10249348;28;870;-71
2023/07/01 08:26:42;;;;;;;;;;;;;;;20.46;50.10;98672.47;10249001;28;1894;-70
2023/07/01 08:31:40;;;;;;;;;;;;;;;20.44;50.39;98662.97;10248823;28;1240;-70
2023/07/01 08:36:37;;;;;;;;;;;;;;;20.41;50.49;98653.44;10248733;28;896;-72
2023/07/01 08:41:34;;;;;;;;;;;;;;;20.38;50.71;98655.44;10247915;28;952;-67
2023/07/01 08:46:31;;;;;;;;;;;;;;;20.32;51.49;98656.72;10249078;28;1906;-67
2023/07/01 08:51:28;;;;;;;;;;;;;;;20.35;51.66;98659.97;10248320;28;1000;-67
2023/07/01 08:56:24;;;;;;;;;;;;;;;20.39;52.22;98650.03;10247918;28;885;-67
2023/07/01 09:01:21;;;;;;;;;;;;;;;20.41;52.03;98653.44;10248516;28;863;-66
2023/07/01 09:06:20;;;;;;;;;;;;;;;20.42;52.20;98651.63;10247567;28;1898;-66
2023/07/01 09:11:17;;;;;;;;;;;;;;;20.36;52.84;98656.41;10248070;28;852;-66
2023/07/01 09:16:14;;;;;;;;;;;;;;;20.38;53.03;98650.97;10247285;28;870;-69
2023/07/01 09:21:10;;;;;;;;;;;;;;;20.31;53.54;98653.22;10247617;28;913;-68
2023/07/01 09:26:10;;;;;;;;;;;;;;;20.30;53.87;98654.19;10247500;28;953;-69
2023/07/01 09:31:07;;;;;;;;;;;;;;;20.31;54.06;98644.44;10246615;28;1906;-67
2023/07/01 09:36:04;;;;;;;;;;;;;;;20.22;54.04;98653.88;10247143;28;798;-68
2023/07/01 09:41:01;;;;;;;;;;;;;;;20.21;54.36;98649.53;10246928;28;875;-67
2023/07/01 09:45:59;;;;;;;;;;;;;;;20.28;54.50;98650.81;10246150;28;787;-66
2023/07/01 09:50:56;;;;;;;;;;;;;;;20.22;54.67;98651.22;10245854;28;1964;-65
2023/07/01 09:55:53;;;;;;;;;;;;;;;20.32;54.60;98638.19;10245396;28;1157;-66
2023/07/01 10:00:50;;;;;;;;;;;;;;;20.33;54.60;98634.59;10246155;28;858;-66
2023/07/01 10:05:47;;;;;;;;;;;;;;;20.39;54.47;98635.97;10245337;28;958;-66
2023/07/01 10:10:44;;;;;;;;;;;;;;;20.42;54.42;98630.44;10244438;28;1898;-66
2023/07/01 10:15:41;;;;;;;;;;;;;;;20.49;54.25;98621.13;10245044;28;1043;-66
2023/07/01 10:20:38;;;;;;;;;;;;;;;20.50;54.34;98620.16;10244932;28;903;-66
2023/07/01 10:25:35;;;;;;;;;;;;;;;20.48;54.21;98627.34;10244694;28;965;-66
2023/07/01 10:30:32;;;;;;;;;;;;;;;20.45;54.29;98617.00;10244411;28;1960;-67
2023/07/01 10:35:29;;;;;;;;;;;;;;;20.45;54.58;98619.63;10244304;28;1292;-67
2023/07/01 10:40:26;;;;;;;;;;;;;;;20.47;54.39;98609.78;10245079;28;1000;-66
2023/07/01 10:45:23;;;;;;;;;;;;;;;20.45;54.60;98617.81;10245087;28;955;-66
2023/07/01 10:50:20;;;;;;;;;;;;;;;20.48;54.25;98619.41;10244776;28;1976;-67
2023/07/01 10:55:17;;;;;;;;;;;;;;;20.45;54.51;98607.25;10245026;28;861;-67
2023/07/01 11:00:14;;;;;;;;;;;;;;;20.46;54.40;98603.66;10245122;28;862;-67
2023/07/01 11:05:11;;;;;;;;;;;;;;;20.48;54.24;98603.53;10247440;28;739;-66
2023/07/01 11:10:08;;;;;;;;;;;;;;;20.49;54.68;98606.06;10252580;28;1898;-66
2023/07/01 11:15:05;;;;;;;;;;;;;;;20.42;54.84;98602.19;10252515;28;1036;-66
2023/07/01 11:20:02;;;;;;;;;;;;;;;20.43;54.89;98592.44;10251703;28;790;-67
2023/07/01 11:24:58;;;;;;;;;;;;;;;20.44;55.05;98604.72;10252594;28;835;-66
2023/07/01 11:29:55;;;;;;;;;;;;;;;20.49;54.69;98592.00;10250715;28;1898;-66
2023/07/01 11:34:52;;;;;;;;;;;;;;;20.45;55.22;98587.88;10252208;28;1292;-66
2023/07/01 11:39:49;;;;;;;;;;;;;;;20.53;54.65;98585.50;10251137;28;949;-70
2023/07/01 11:44:46;;;;;;;;;;;;;;;20.57;54.38;98603.75;10251516;28;827;-70
2023/07/01 11:49:43;;;;;;;;;;;;;;;20.62;54.24;98586.66;10251067;28;1922;-70
2023/07/01 11:54:40;;;;;;;;;;;;;;;20.56;54.80;98596.75;10250449;28;874;-67
2023/07/01 11:59:37;;;;;;;;;;;;;;;20.56;54.97;98588.81;10250254;28;783;-66
2023/07/01 12:04:35;;;;;;;;;;;;;;;20.57;54.31;98584.38;10250998;28;961;-70
2023/07/01 12:09:32;;;;;;;;;;;;;;;20.56;54.67;98587.97;10250100;28;1957;-70
2023/07/01 12:14:29;;;;;;;;;;;;;;;20.52;54.81;98597.06;10249947;28;789;-70
2023/07/01 12:19:26;;;;;;;;;;;;;;;20.50;54.79;98588.38;10248672;28;844;-70
2023/07/01 12:24:23;;;;;;;;;;;;;;;20.48;54.65;98585.00;10249233;28;963;-70
2023/07/01 12:29:20;;;;;;;;;;;;;;;20.49;54.95;98586.72;10250122;28;1961;-70
2023/07/01 12:34:17;;;;;;;;;;;;;;;20.49;55.26;98570.81;10249362;28;1390;-70
2023/07/01 12:39:15;;;;;;;;;;;;;;;20.50;54.72;98570.69;10249574;28;828;-69
2023/07/01 12:44:12;;;;;;;;;;;;;;;20.54;55.17;98588.09;10248019;28;877;-70
2023/07/01 12:49:09;;;;;;;;;;;;;;;20.51;54.54;98584.78;10248465;28;1983;-70
2023/07/01 12:54:06;;;;;;;;;;;;;;;20.49;55.02;98587.53;10248164;28;864;-70
2023/07/01 12:59:03;;;;;;;;;;;;;;;20.49;55.83;98581.41;10248475;28;963;-70
2023/07/01 13:04:00;;;;;;;;;;;;;;;20.47;55.72;98583.31;10247833;28;885;-69
2023/07/01 13:08:57;;;;;;;;;;;;;;;20.45;55.63;98591.34;10246872;28;1950;-70
2023/07/01 13:13:54;;;;;;;;;;;;;;;20.43;55.70;98592.44;10247173;28;768;-69
2023/07/01 13:18:51;;;;;;;;;;;;;;;20.42;55.32;98591.59;10247044;28;774;-70
2023/07/01 13:23:48;;;;;;;;;;;;;;;20.43;55.26;98590.63;10247328;28;806;-71
2023/07/01 13:28:44;;;;;;;;;;;;;;;20.43;55.63;98598.56;10246386;28;1961;-70
2023/07/01 13:33:43;;;;;;;;;;;;;;;20.45;55.49;98596.66;10246384;28;1316;-70
2023/07/01 13:38:40;;;;;;;;;;;;;;;20.45;55.37;98588.72;10246115;28;963;-70
2023/07/01 13:43:37;;;;;;;;;;;;;;;20.44;55.94;98588.84;10245964;28;867;-70
2023/07/01 13:48:34;;;;;;;;;;;;;;;20.45;55.79;98590.53;10246276;28;1910;-70
2023/07/01 13:53:32;;;;;;;;;;;;;;;20.48;56.03;98585.00;10245674;28;806;-70
2023/07/01 13:58:28;;;;;;;;;;;;;;;20.49;55.82;98578.78;10245393;28;868;-70
2023/07/01 14:03:25;;;;;;;;;;;;;;;20.48;55.57;98575.25;10244694;28;1012;-70
2023/07/01 14:08:22;;;;;;;;;;;;;;;20.51;55.38;98566.25;10245736;28;1965;-70
2023/07/01 14:13:18;;;;;;;;;;;;;;;20.49;55.20;98568.19;10245223;28;909;-70
2023/07/01 14:18:15;;;;;;;;;;;;;;;20.49;55.52;98561.06;10244824;28;897;-70
2023/07/01 14:23:15;;;;;;;;;;;;;;;20.48;55.38;98559.38;10244105;28;865;-70
2023/07/01 14:28:11;;;;;;;;;;;;;;;20.53;55.12;98551.94;10244771;28;1952;-70
2023/07/01 14:33:08;;;;;;;;;;;;;;;20.58;54.90;98551.63;10244590;28;1453;-66
2023/07/01 14:38:04;;;;;;;;;;;;;;;20.61;55.26;98508.19;10244233;28;900;-66
2023/07/01 14:43:01;;;;;;;;;;;;;;;20.65;55.03;98507.03;10244718;28;921;-66
2023/07/01 14:47:58;;;;;;;;;;;;;;;20.67;55.89;98513.91;10243926;28;1891;-67
2023/07/01 14:52:54;;;;;;;;;;;;;;;20.90;55.03;98545.75;10243861;28;869;-66
2023/07/01 14:57:51;;;;;;;;;;;;;;;21.05;54.92;98544.59;10244248;28;891;-66
2023/07/01 15:02:48;;;;;;;;;;;;;;;20.86;55.38;98545.13;10244120;28;827;-67
2023/07/01 15:07:45;;;;;;;;;;;;;;;20.79;55.39;98542.09;10242834;28;1897;-66
2023/07/01 15:12:41;;;;;;;;;;;;;;;20.78;55.83;98553.66;10243471;28;862;-66
2023/07/01 15:17:38;;;;;;;;;;;;;;;20.79;55.82;98528.84;10243385;28;814;-65
2023/07/01 15:22:35;;;;;;;;;;;;;;;21.06;55.26;98526.88;10243861;28;937;-65
2023/07/01 15:27:31;;;;;;;;;;;;;;;21.10;55.39;98517.75;10243376;28;858;-66
2023/07/01 15:32:28;;;;;;;;;;;;;;;20.85;56.13;98514.28;10243316;28;1886;-66
2023/07/01 15:37:25;;;;;;;;;;;;;;;20.75;55.92;98523.88;10243597;28;884;-66
2023/07/01 15:42:21;;;;;;;;;;;;;;;20.73;56.27;98523.19;10242978;28;818;-67
2023/07/01 15:47:18;;;;;;;;;;;;;;;20.71;56.65;98518.00;10244038;28;992;-66
2023/07/01 15:52:15;;;;;;;;;;;;;;;20.70;56.79;98513.66;10247537;28;1989;-65
2023/07/01 15:57:11;;;;;;;;;;;;;;;20.68;56.81;98510.28;10250193;28;830;-67
2023/07/01 16:02:08;;;;;;;;;;;;;;;20.66;57.08;98509.53;10249949;28;939;-67
2023/07/01 16:07:05;;;;;;;;;;;;;;;20.67;57.12;98513.03;10249792;28;787;-67
2023/07/01 16:12:01;;;;;;;;;;;;;;;20.66;57.33;98514.84;10249534;28;1902;-67
2023/07/01 16:16:58;;;;;;;;;;;;;;;20.65;57.38;98504.38;10250072;28;811;-67
2023/07/01 16:21:55;;;;;;;;;;;;;;;20.65;57.25;98507.03;10248806;28;1126;-67
2023/07/01 16:26:51;;;;;;;;;;;;;;;20.64;57.47;98516.75;10249113;28;772;-66
2023/07/01 16:31:48;;;;;;;;;;;;;;;20.64;57.38;98522.03;10248940;28;1894;-67
2023/07/01 16:36:45;;;;;;;;;;;;;;;20.67;57.44;98537.72;10248668;28;869;-66
2023/07/01 16:41:41;;;;;;;;;;;;;;;20.66;57.18;98551.06;10248915;28;827;-67
2023/07/01 16:46:38;;;;;;;;;;;;;;;20.62;57.22;98544.28;10247806;28;917;-67
2023/07/01 16:51:35;;;;;;;;;;;;;;;20.60;57.31;98555.03;10248530;28;1914;-66
2023/07/01 16:56:31;;;;;;;;;;;;;;;20.60;57.26;98560.31;10247913;28;875;-66
2023/07/01 17:01:29;;;;;;;;;;;;;;;20.59;57.36;98558.59;10247690;28;795;-66
2023/07/01 17:06:25;;;;;;;;;;;;;;;20.59;57.41;98561.25;10247540;28;774;-67
2023/07/01 17:11:22;;;;;;;;;;;;;;;20.60;57.43;98568.25;10247937;28;1898;-66
2023/07/01 17:16:18;;;;;;;;;;;;;;;20.60;57.50;98568.25;10248007;28;995;-66
2023/07/01 17:21:15;;;;;;;;;;;;;;;20.59;57.37;98579.78;10247158;28;990;-66
2023/07/01 17:26:12;;;;;;;;;;;;;;;20.59;57.47;98587.72;10246941;28;855;-66
2023/07/01 17:31:09;;;;;;;;;;;;;;;20.58;57.26;98592.19;10246828;28;1890;-66
2023/07/01 17:36:05;;;;;;;;;;;;;;;20.61;57.22;98593.75;10246712;28;739;-66
2023/07/01 17:41:03;;;;;;;;;;;;;;;20.58;57.33;98601.94;10246407;28;760;-66
2023/07/01 17:46:00;;;;;;;;;;;;;;;20.58;57.44;98608.06;10246232;28;907;-66
2023/07/01 17:50:57;;;;;;;;;;;;;;;20.58;57.56;98609.88;10246003;28;1910;-66
2023/07/01 17:55:53;;;;;;;;;;;;;;;20.59;57.48;98614.19;10245886;28;835;-66
2023/07/01 18:00:50;;;;;;;;;;;;;;;20.58;57.28;98621.31;10246243;28;873;-66
2023/07/01 18:05:47;;;;;;;;;;;;;;;20.57;57.43;98642.63;10246357;28;843;-66
2023/07/01 18:10:43;;;;;;;;;;;;;;;20.54;57.58;98638.38;10244415;28;1890;-64
2023/07/01 18:15:40;;;;;;;;;;;;;;;20.56;57.70;98649.69;10245085;28;878;-66
2023/07/01 18:20:36;;;;;;;;;;;;;;;20.55;57.53;98655.09;10244585;28;963;-67
2023/07/01 18:25:33;;;;;;;;;;;;;;;20.53;57.48;98671.06;10244894;28;931;-67
2023/07/01 18:30:30;;;;;;;;;;;;;;;20.53;57.54;98673.72;10244783;28;1890;-66
2023/07/01 18:35:26;;;;;;;;;;;;;;;20.53;57.90;98678.16;10243890;28;1650;-66
2023/07/01 18:40:23;;;;;;;;;;;;;;;20.50;57.84;98679.22;10244865;28;836;-67
2023/07/01 18:45:19;;;;;;;;;;;;;;;20.49;57.76;98676.72;10243665;28;795;-67
2023/07/01 18:50:16;;;;;;;;;;;;;;;20.47;58.08;98673.31;10244775;28;1910;-67
2023/07/01 18:55:13;;;;;;;;;;;;;;;20.47;58.06;98675.97;10245377;28;943;-67
2023/07/01 19:00:09;;;;;;;;;;;;;;;20.46;57.98;98684.84;10243993;28;851;-67
2023/07/01 19:05:06;;;;;;;;;;;;;;;20.45;58.00;98685.81;10243957;28;952;-66
2023/07/01 19:10:04;;;;;;;;;;;;;;;20.43;57.89;98680.59;10243844;28;1961;-67
2023/07/01 19:15:01;;;;;;;;;;;;;;;20.42;57.96;98691.31;10243701;28;863;-67
2023/07/01 19:19:57;;;;;;;;;;;;;;;20.42;57.94;98691.31;10243628;28;912;-67
2023/07/01 19:24:54;;;;;;;;;;;;;;;20.40;58.12;98690.59;10244326;28;928;-67
2023/07/01 19:29:51;;;;;;;;;;;;;;;20.39;58.05;98697.69;10251387;28;1894;-67
2023/07/01 19:34:47;;;;;;;;;;;;;;;20.38;57.95;98705.72;10251891;28;1115;-67
2023/07/01 19:39:44;;;;;;;;;;;;;;;20.38;58.01;98711.00;10251917;28;863;-67
2023/07/01 19:44:41;;;;;;;;;;;;;;;20.38;57.97;98717.16;10252075;28;925;-67
2023/07/01 19:49:37;;;;;;;;;;;;;;;20.35;57.89;98714.72;10251737;28;1969;-66
2023/07/01 19:54:34;;;;;;;;;;;;;;;20.35;58.06;98727.94;10250636;28;754;-66
2023/07/01 19:59:30;;;;;;;;;;;;;;;20.35;57.99;98733.25;10250024;28;976;-67
2023/07/01 20:04:27;;;;;;;;;;;;;;;20.34;57.66;98748.28;10250852;28;941;-67
2023/07/01 20:09:24;;;;;;;;;;;;;;;20.32;57.87;98750.19;10249973;28;1961;-67
2023/07/01 20:14:20;;;;;;;;;;;;;;;20.33;57.85;98749.25;10249866;28;785;-67
2023/07/01 20:19:17;;;;;;;;;;;;;;;20.32;57.91;98752.00;10250186;28;829;-67
2023/07/01 20:24:14;;;;;;;;;;;;;;;20.32;57.71;98759.94;10249474;28;867;-67
2023/07/01 20:29:10;;;;;;;;;;;;;;;20.31;57.64;98772.31;10249168;28;1961;-67
2023/07/01 20:34:07;;;;;;;;;;;;;;;20.32;57.70;98770.50;10248681;28;1251;-66
2023/07/01 20:39:05;;;;;;;;;;;;;;;20.31;57.71;98772.31;10247903;28;1172;-66
2023/07/01 20:44:01;;;;;;;;;;;;;;;20.32;57.54;98776.66;10248719;28;910;-66
2023/07/01 20:48:58;;;;;;;;;;;;;;;20.30;57.54;98773.28;10247856;28;1972;-67
2023/07/01 20:53:55;;;;;;;;;;;;;;;20.30;57.53;98773.28;10249605;28;829;-67
2023/07/01 20:58:51;;;;;;;;;;;;;;;20.30;57.51;98783.88;10248123;28;834;-67
2023/07/01 21:03:48;;;;;;;;;;;;;;;20.30;57.52;98785.66;10248255;28;967;-67
2023/07/01 21:08:45;;;;;;;;;;;;;;;20.29;57.64;98792.75;10247741;28;1894;-67
2023/07/01 21:13:41;;;;;;;;;;;;;;;20.28;57.62;98782.28;10247601;28;806;-66
2023/07/01 21:18:38;;;;;;;;;;;;;;;20.28;57.50;98801.66;10247335;28;797;-67
2023/07/01 21:23:35;;;;;;;;;;;;;;;20.29;57.58;98797.19;10247233;28;849;-67
2023/07/01 21:28:31;;;;;;;;;;;;;;;20.27;57.47;98802.56;10246976;28;885;-67
2023/07/01 21:33:28;;;;;;;;;;;;;;;20.27;57.48;98804.38;10247482;28;1960;-67
2023/07/01 21:38:25;;;;;;;;;;;;;;;20.26;57.41;98821.22;10245973;28;863;-67
2023/07/01 21:43:22;;;;;;;;;;;;;;;20.26;57.50;98818.56;10246464;28;802;-66
2023/07/01 21:48:18;;;;;;;;;;;;;;;20.24;57.51;98818.66;10246102;28;950;-67
2023/07/01 21:53:15;;;;;;;;;;;;;;;20.24;57.40;98821.31;10246265;28;1977;-64
2023/07/01 21:58:11;;;;;;;;;;;;;;;20.22;57.39;98825.03;10246012;28;1008;-65
2023/07/01 22:03:08;;;;;;;;;;;;;;;20.24;57.51;98836.34;10245093;28;1059;-67
2023/07/01 22:08:05;;;;;;;;;;;;;;;20.24;57.48;98844.28;10245557;28;798;-67
2023/07/01 22:13:01;;;;;;;;;;;;;;;20.23;57.47;98827.56;10245235;28;1969;-67
2023/07/01 22:17:58;;;;;;;;;;;;;;;20.20;57.39;98833.09;10245684;28;810;-67
2023/07/01 22:22:55;;;;;;;;;;;;;;;20.22;57.42;98830.31;10245606;28;862;-67
2023/07/01 22:27:51;;;;;;;;;;;;;;;20.23;57.28;98845.25;10244836;28;881;-67
2023/07/01 22:32:48;;;;;;;;;;;;;;;20.21;57.26;98842.69;10244624;28;1902;-67
2023/07/01 22:37:45;;;;;;;;;;;;;;;20.22;57.16;98840.91;10245159;28;1154;-67
2023/07/01 22:42:41;;;;;;;;;;;;;;;20.21;57.26;98845.34;10244377;28;880;-67
2023/07/01 22:47:38;;;;;;;;;;;;;;;20.19;57.21;98839.31;10244254;28;916;-67
2023/07/01 22:52:35;;;;;;;;;;;;;;;20.19;57.18;98843.75;10244681;28;1918;-67
2023/07/01 22:57:31;;;;;;;;;;;;;;;20.19;57.29;98849.88;10245293;28;861;-67
2023/07/01 23:02:28;;;;;;;;;;;;;;;20.19;57.26;98854.34;10243753;28;853;-67
2023/07/01 23:07:25;;;;;;;;;;;;;;;20.19;57.26;98862.28;10243843;28;860;-67
2023/07/01 23:12:21;;;;;;;;;;;;;;;20.19;57.25;98855.19;10243787;28;1902;-67
2023/07/01 23:17:18;;;;;;;;;;;;;;;20.19;57.20;98855.19;10243661;28;810;-67
2023/07/01 23:22:14;;;;;;;;;;;;;;;20.17;57.15;98851.78;10244252;28;881;-67
2023/07/01 23:27:11;;;;;;;;;;;;;;;20.17;57.27;98858.88;10243562;28;756;-67
2023/07/01 23:32:08;;;;;;;;;;;;;;;20.16;57.20;98847.44;10243678;28;1902;-67
2023/07/01 23:37:05;;;;;;;;;;;;;;;20.15;57.10;98856.34;10244649;28;869;-67
2023/07/01 23:42:01;;;;;;;;;;;;;;;20.17;57.18;98856.22;10243458;28;952;-67
2023/07/01 23:46:58;;;;;;;;;;;;;;;20.15;57.20;98851.06;10243234;28;1170;-67
2023/07/01 23:51:54;;;;;;;;;;;;;;;20.14;57.03;98847.53;10243142;28;1910;-67
2023/07/01 23:56:51;;;;;;;;;;;;;;;20.13;57.25;98837.91;10244305;28;929;-67
